createdAt,value
2023-04-16T00:02:20.474Z,9.02
2023-04-16T00:04:49.088Z,7.70
2023-04-16T00:07:18.726Z,11.52
2023-04-16T00:09:47.029Z,9.15
2023-04-16T00:12:15.874Z,8.82
2023-04-16T00:14:44.146Z,9.75
2023-04-16T00:17:12.413Z,7.03
2023-04-16T00:19:40.640Z,6.88
2023-04-16T00:22:09.107Z,12.85
2023-04-16T00:24:38.777Z,10.40
2023-04-16T00:27:07.733Z,7.18
2023-04-16T00:29:36.016Z,12.43
2023-04-16T00:32:04.261Z,10.55
2023-04-16T00:34:32.471Z,9.55
2023-04-16T00:37:01.651Z,9.75
2023-04-16T00:39:30.008Z,6.78
2023-04-16T00:41:59.621Z,6.65
2023-04-16T00:44:27.821Z,7.65
2023-04-16T00:46:57.177Z,6.20
2023-04-16T00:49:25.696Z,9.68
2023-04-16T00:51:53.949Z,7.00
2023-04-16T00:54:22.715Z,6.10
2023-04-16T00:56:52.573Z,8.07
2023-04-16T00:59:22.629Z,8.27
2023-04-16T01:01:50.966Z,10.00
2023-04-16T01:04:19.441Z,4.47
2023-04-16T01:06:47.819Z,8.38
2023-04-16T01:09:16.189Z,8.85
2023-04-16T01:11:44.460Z,6.35
2023-04-16T01:14:12.962Z,5.47
2023-04-16T01:16:42.620Z,7.53
2023-04-16T01:19:11.112Z,5.57
2023-04-16T01:21:41.028Z,5.68
2023-04-16T01:24:09.559Z,6.25
2023-04-16T01:26:37.770Z,5.82
2023-04-16T01:29:06.149Z,13.25
2023-04-16T01:31:34.482Z,8.05
2023-04-16T01:34:06.809Z,7.63
2023-04-16T01:36:36.585Z,6.28
2023-04-16T01:39:06.284Z,5.18
2023-04-16T01:41:34.722Z,14.73
2023-04-16T01:44:03.532Z,8.13
2023-04-16T01:46:34.538Z,6.30
2023-04-16T01:49:03.686Z,7.78
2023-04-16T01:51:32.242Z,7.05
2023-04-16T01:54:00.743Z,6.50
2023-04-16T01:56:30.476Z,6.90
2023-04-16T01:58:58.815Z,13.25
2023-04-16T02:01:31.948Z,7.13
2023-04-16T02:04:00.631Z,9.43
2023-04-16T02:06:28.969Z,5.93
2023-04-16T02:08:57.379Z,7.28
2023-04-16T02:11:26.991Z,11.65
2023-04-16T02:13:57.635Z,6.75
2023-04-16T02:16:26.396Z,9.50
2023-04-16T02:19:00.196Z,11.13
2023-04-16T02:21:32.619Z,8.13
2023-04-16T02:24:01.498Z,6.18
2023-04-16T02:26:32.313Z,6.35
2023-04-16T02:29:08.430Z,6.82
2023-04-16T02:31:43.142Z,6.75
2023-04-16T02:34:12.556Z,8.45
2023-04-16T02:36:40.926Z,5.70
2023-04-16T02:39:09.653Z,6.95
2023-04-16T02:41:38.633Z,5.68
2023-04-16T02:44:08.561Z,9.50
2023-04-16T02:46:36.726Z,8.20
2023-04-16T02:49:04.968Z,8.50
2023-04-16T02:51:33.297Z,6.55
2023-04-16T02:54:03.065Z,7.13
2023-04-16T02:56:32.260Z,5.18
2023-04-16T02:59:00.563Z,8.25
2023-04-16T03:01:30.327Z,10.23
2023-04-16T03:03:58.813Z,7.90
2023-04-16T03:06:27.560Z,6.72
2023-04-16T03:08:55.852Z,6.75
2023-04-16T03:11:24.148Z,8.55
2023-04-16T03:13:52.376Z,5.82
2023-04-16T03:16:20.776Z,12.25
2023-04-16T03:18:50.671Z,8.65
2023-04-16T03:21:19.216Z,10.75
2023-04-16T03:23:47.696Z,11.50
2023-04-16T03:26:16.452Z,8.13
2023-04-16T03:28:44.675Z,11.05
2023-04-16T03:31:13.055Z,9.23
2023-04-16T03:33:41.490Z,9.25
2023-04-16T03:36:11.609Z,11.32
2023-04-16T03:38:39.873Z,13.13
2023-04-16T03:41:09.134Z,11.02
2023-04-16T03:43:38.743Z,10.32
2023-04-16T03:46:07.214Z,9.88
2023-04-16T03:48:36.557Z,9.68
2023-04-16T03:51:05.849Z,9.70
2023-04-16T03:53:36.337Z,8.65
2023-04-16T03:56:04.929Z,11.60
2023-04-16T03:58:33.185Z,9.23
2023-04-16T04:01:01.545Z,7.70
2023-04-16T04:03:30.134Z,8.95
2023-04-16T04:05:58.641Z,6.95
2023-04-16T04:08:30.468Z,10.25
2023-04-16T04:11:00.204Z,14.82
2023-04-16T04:13:29.333Z,11.38
2023-04-16T04:15:58.401Z,15.52
2023-04-16T04:18:28.461Z,14.43
2023-04-16T04:20:57.245Z,10.57
2023-04-16T04:23:29.447Z,14.90
2023-04-16T04:25:59.520Z,14.77
2023-04-16T04:28:27.861Z,10.85
2023-04-16T04:30:56.373Z,19.20
2023-04-16T04:33:24.618Z,9.63
2023-04-16T04:35:53.080Z,12.13
2023-04-16T04:38:25.327Z,7.90
2023-04-16T04:40:54.951Z,9.13
2023-04-16T04:43:26.328Z,7.25
2023-04-16T04:45:54.622Z,7.10
2023-04-16T04:48:26.615Z,6.93
2023-04-16T04:50:56.117Z,9.15
2023-04-16T04:53:25.283Z,7.03
2023-04-16T04:55:55.657Z,7.22
2023-04-16T04:58:27.130Z,9.05
2023-04-16T05:00:55.545Z,8.38
2023-04-16T05:03:23.848Z,6.72
2023-04-16T05:05:52.170Z,6.45
2023-04-16T05:08:20.439Z,7.63
2023-04-16T05:10:48.670Z,12.10
2023-04-16T05:13:16.856Z,6.90
2023-04-16T05:15:46.861Z,12.00
2023-04-16T05:18:15.097Z,10.35
2023-04-16T05:20:43.335Z,9.48
2023-04-16T05:23:11.747Z,10.38
2023-04-16T05:25:39.984Z,8.60
2023-04-16T05:28:08.221Z,8.60
2023-04-16T05:30:36.467Z,6.30
2023-04-16T05:33:06.223Z,9.38
2023-04-16T05:35:35.132Z,8.45
2023-04-16T05:38:04.483Z,6.10
2023-04-16T05:40:32.951Z,9.57
2023-04-16T05:43:01.157Z,11.00
2023-04-16T05:45:29.503Z,7.18
2023-04-16T05:47:57.882Z,7.55
2023-04-16T05:50:27.562Z,9.55
2023-04-16T05:52:55.786Z,9.48
2023-04-16T05:55:23.972Z,11.73
2023-04-16T05:57:52.204Z,11.35
2023-04-16T06:00:20.588Z,8.20
2023-04-16T06:02:48.928Z,8.70
2023-04-16T06:05:17.486Z,9.30
2023-04-16T06:07:47.124Z,12.15
2023-04-16T06:10:15.446Z,13.35
2023-04-16T06:12:43.775Z,9.15
2023-04-16T06:15:12.788Z,11.15
2023-04-16T06:17:41.621Z,10.80
2023-04-16T06:20:10.967Z,6.47
2023-04-16T06:22:39.241Z,7.90
2023-04-16T06:25:10.166Z,15.45
2023-04-16T06:27:38.585Z,10.85
2023-04-16T06:30:12.354Z,35.55
2023-04-16T06:32:40.994Z,24.92
2023-04-16T06:35:10.121Z,10.02
2023-04-16T06:37:38.448Z,19.15
2023-04-16T06:40:09.401Z,10.43
2023-04-16T06:42:37.845Z,8.82
2023-04-16T06:45:07.079Z,10.10
2023-04-16T06:47:35.458Z,8.80
2023-04-16T06:50:03.684Z,12.85
2023-04-16T06:52:32.290Z,14.73
2023-04-16T06:55:00.553Z,15.52
2023-04-16T06:57:30.273Z,11.90
2023-04-16T06:59:58.464Z,15.38
2023-04-16T07:02:26.947Z,8.40
2023-04-16T07:04:55.316Z,62.72
2023-04-16T07:07:23.635Z,51.28
2023-04-16T07:09:52.127Z,11.55
2023-04-16T07:12:22.876Z,10.23
2023-04-16T07:14:52.795Z,8.48
2023-04-16T07:17:21.012Z,10.15
2023-04-16T07:19:49.732Z,13.43
2023-04-16T07:22:18.178Z,10.77
2023-04-16T07:24:46.379Z,10.93
2023-04-16T07:27:14.524Z,9.32
2023-04-16T07:29:42.849Z,12.27
2023-04-16T07:32:15.257Z,14.73
2023-04-16T07:34:44.192Z,12.15
2023-04-16T07:37:12.425Z,11.05
2023-04-16T07:39:40.776Z,10.05
2023-04-16T07:42:09.002Z,15.30
2023-04-16T07:44:37.341Z,10.93
2023-04-16T07:47:05.870Z,11.48
2023-04-16T07:49:35.709Z,8.27
2023-04-16T07:52:03.947Z,8.70
2023-04-16T07:54:32.248Z,13.73
2023-04-16T07:57:00.530Z,9.32
2023-04-16T07:59:29.290Z,8.70
2023-04-16T08:01:58.072Z,9.85
2023-04-16T08:04:26.785Z,12.98
2023-04-16T08:06:56.587Z,19.08
2023-04-16T08:09:28.401Z,13.43
2023-04-16T08:11:56.838Z,14.75
2023-04-16T08:14:25.043Z,12.85
2023-04-16T08:16:53.293Z,10.70
2023-04-16T08:19:21.539Z,16.50
2023-04-16T08:21:49.892Z,13.38
2023-04-16T08:24:19.652Z,13.20
2023-04-16T08:26:47.877Z,16.80
2023-04-16T08:29:16.196Z,13.52
2023-04-16T08:31:44.746Z,13.50
2023-04-16T08:34:13.018Z,13.93
2023-04-16T08:36:41.969Z,13.65
2023-04-16T08:39:10.802Z,17.13
2023-04-16T08:41:44.136Z,18.33
2023-04-16T08:44:18.686Z,23.75
2023-04-16T08:46:48.051Z,15.98
2023-04-16T08:49:19.105Z,16.17
2023-04-16T08:51:55.419Z,15.93
2023-04-16T08:54:33.576Z,18.38
2023-04-16T08:57:07.637Z,23.35
2023-04-16T08:59:36.765Z,17.35
2023-04-16T09:02:06.959Z,12.25
2023-04-16T09:04:35.951Z,20.48
2023-04-16T09:07:07.473Z,21.70
2023-04-16T09:09:36.520Z,26.17
2023-04-16T09:12:06.431Z,27.75
2023-04-16T09:14:36.080Z,45.25
2023-04-16T09:17:05.355Z,29.42
2023-04-16T09:19:33.808Z,25.85
2023-04-16T09:22:02.103Z,25.13
2023-04-16T09:24:31.120Z,49.72
2023-04-16T09:27:00.285Z,46.60
2023-04-16T09:29:42.604Z,43.03
2023-04-16T09:32:12.422Z,15.10
2023-04-16T09:34:57.704Z,22.35
2023-04-16T09:37:29.691Z,30.25
2023-04-16T09:39:59.580Z,22.10
2023-04-16T09:42:29.627Z,30.50
2023-04-16T09:45:01.943Z,28.70
2023-04-16T09:47:41.968Z,27.35
2023-04-16T09:50:12.906Z,48.05
2023-04-16T09:52:43.316Z,29.20
2023-04-16T09:55:11.536Z,64.95
2023-04-16T09:57:39.965Z,26.55
2023-04-16T10:00:11.570Z,70.30
2023-04-16T10:02:42.712Z,59.05
2023-04-16T10:05:16.800Z,36.58
2023-04-16T10:07:45.252Z,44.55
2023-04-16T10:10:14.029Z,40.65
2023-04-16T10:12:43.717Z,35.00
2023-04-16T10:15:13.579Z,32.00
2023-04-16T10:17:42.166Z,39.85
2023-04-16T10:20:11.242Z,34.53
2023-04-16T10:22:39.634Z,34.97
2023-04-16T10:25:09.250Z,22.70
2023-04-16T10:27:38.603Z,46.15
2023-04-16T10:30:08.956Z,48.95
2023-04-16T10:32:39.833Z,50.58
2023-04-16T10:35:08.595Z,31.48
2023-04-16T10:37:39.069Z,24.30
2023-04-16T10:40:25.464Z,16.25
2023-04-16T10:42:58.299Z,23.25
2023-04-16T10:45:33.601Z,16.10
2023-04-16T10:48:06.101Z,27.05
2023-04-16T10:50:37.790Z,27.15
2023-04-16T10:53:19.281Z,31.02
2023-04-16T10:56:13.118Z,23.38
2023-04-16T10:58:41.487Z,22.55
2023-04-16T11:01:14.128Z,17.98
2023-04-16T11:03:45.475Z,39.85
2023-04-16T11:06:16.748Z,17.27
2023-04-16T11:08:54.412Z,19.27
2023-04-16T11:11:23.954Z,24.27
2023-04-16T11:13:57.070Z,24.30
2023-04-16T11:16:26.440Z,25.15
2023-04-16T11:19:07.845Z,20.17
2023-04-16T11:21:37.145Z,19.83
2023-04-16T11:24:05.535Z,29.73
2023-04-16T11:26:33.837Z,33.72
2023-04-16T11:29:02.480Z,23.88
2023-04-16T11:31:30.896Z,23.52
2023-04-16T11:34:01.032Z,25.48
2023-04-16T11:36:29.360Z,22.27
2023-04-16T11:39:04.102Z,19.23
2023-04-16T11:41:32.428Z,19.60
2023-04-16T11:44:00.649Z,21.48
2023-04-16T11:46:40.662Z,28.63
2023-04-16T11:49:11.084Z,27.20
2023-04-16T11:51:43.282Z,35.78
2023-04-16T11:54:19.289Z,26.55
2023-04-16T11:56:49.032Z,21.42
2023-04-16T11:59:19.188Z,16.02
2023-04-16T12:01:49.458Z,20.40
2023-04-16T12:04:22.313Z,20.10
2023-04-16T12:07:05.841Z,18.75
2023-04-16T12:09:36.098Z,29.73
2023-04-16T12:12:06.863Z,21.92
2023-04-16T12:14:35.450Z,19.98
2023-04-16T12:17:20.819Z,24.98
2023-04-16T12:19:56.797Z,20.95
2023-04-16T12:22:29.869Z,23.92
2023-04-16T12:25:02.903Z,18.50
2023-04-16T12:27:46.643Z,14.93
2023-04-16T12:30:16.380Z,23.98
2023-04-16T12:32:46.183Z,18.38
2023-04-16T12:35:30.569Z,17.45
2023-04-16T12:37:59.031Z,18.85
2023-04-16T12:40:27.601Z,17.67
2023-04-16T12:42:56.090Z,15.45
2023-04-16T12:45:24.323Z,15.48
2023-04-16T12:47:52.906Z,29.83
2023-04-16T12:50:22.722Z,38.42
2023-04-16T12:52:51.688Z,19.15
2023-04-16T12:55:20.734Z,17.83
2023-04-16T12:57:49.947Z,24.85
2023-04-16T13:00:18.548Z,19.33
2023-04-16T13:02:47.025Z,29.50
2023-04-16T13:05:16.711Z,30.50
2023-04-16T13:07:46.593Z,17.80
2023-04-16T13:10:15.021Z,19.08
2023-04-16T13:12:43.490Z,18.58
2023-04-16T13:15:12.550Z,16.73
2023-04-16T13:17:40.971Z,16.83
2023-04-16T13:20:10.171Z,17.83
2023-04-16T13:22:38.552Z,21.60
2023-04-16T13:25:09.920Z,17.80
2023-04-16T13:27:38.332Z,18.40
2023-04-16T13:30:07.811Z,15.00
2023-04-16T13:32:36.375Z,13.65
2023-04-16T13:35:04.887Z,19.25
2023-04-16T13:37:33.615Z,14.52
2023-04-16T13:40:01.929Z,24.02
2023-04-16T13:42:33.762Z,20.77
2023-04-16T13:45:02.165Z,16.70
2023-04-16T13:47:32.653Z,22.08
2023-04-16T13:50:01.057Z,21.88
2023-04-16T13:52:29.379Z,23.58
2023-04-16T13:54:59.638Z,20.88
2023-04-16T13:57:29.222Z,16.45
2023-04-16T13:59:59.189Z,18.80
2023-04-16T14:02:27.871Z,16.55
2023-04-16T14:04:56.134Z,21.40
2023-04-16T14:07:27.100Z,23.48
2023-04-16T14:09:55.494Z,21.45
2023-04-16T14:12:23.855Z,32.10
2023-04-16T14:14:52.186Z,24.45
2023-04-16T14:17:21.958Z,23.20
2023-04-16T14:19:50.394Z,29.50
2023-04-16T14:22:18.642Z,17.23
2023-04-16T14:24:46.946Z,27.23
2023-04-16T14:27:15.296Z,18.63
2023-04-16T14:29:44.407Z,22.80
2023-04-16T14:32:12.821Z,14.82
2023-04-16T14:34:42.755Z,25.23
2023-04-16T14:37:11.167Z,24.20
2023-04-16T14:39:39.823Z,19.83
2023-04-16T14:42:08.062Z,20.02
2023-04-16T14:44:36.326Z,18.42
2023-04-16T14:47:04.646Z,21.02
2023-04-16T14:49:33.298Z,24.05
2023-04-16T14:52:05.574Z,25.15
2023-04-16T14:54:34.383Z,25.95
2023-04-16T14:57:03.512Z,34.05
2023-04-16T14:59:32.414Z,27.05
2023-04-16T15:02:01.135Z,24.52
2023-04-16T15:04:31.023Z,18.95
2023-04-16T15:06:59.393Z,31.10
2023-04-16T15:09:29.196Z,34.80
2023-04-16T15:11:58.158Z,34.10
2023-04-16T15:14:26.553Z,24.17
2023-04-16T15:16:55.031Z,37.95
2023-04-16T15:19:23.342Z,33.40
2023-04-16T15:21:51.717Z,28.70
2023-04-16T15:24:20.368Z,32.30
2023-04-16T15:26:49.943Z,23.40
2023-04-16T15:29:18.231Z,31.75
2023-04-16T15:31:46.615Z,26.10
2023-04-16T15:34:15.161Z,36.95
2023-04-16T15:36:43.467Z,29.95
2023-04-16T15:39:12.279Z,30.75
2023-04-16T15:41:53.583Z,38.72
2023-04-16T15:44:29.449Z,26.05
2023-04-16T15:46:57.645Z,22.80
2023-04-16T15:49:26.209Z,24.83
2023-04-16T15:51:54.745Z,23.70
2023-04-16T15:54:23.113Z,20.27
2023-04-16T15:56:51.598Z,25.45
2023-04-16T15:59:20.086Z,19.88
2023-04-16T16:01:49.837Z,21.27
2023-04-16T16:04:18.433Z,21.58
2023-04-16T16:06:46.742Z,20.85
2023-04-16T16:09:15.005Z,19.88
2023-04-16T16:11:43.228Z,16.77
2023-04-16T16:14:11.786Z,22.35
2023-04-16T16:16:40.253Z,20.38
2023-04-16T16:19:10.132Z,17.98
2023-04-16T16:21:38.668Z,22.55
2023-04-16T16:24:07.759Z,29.52
2023-04-16T16:26:35.994Z,26.42
2023-04-16T16:29:04.713Z,28.00
2023-04-16T16:31:33.069Z,23.33
2023-04-16T16:34:01.652Z,26.17
2023-04-16T16:36:32.444Z,25.08
2023-04-16T16:39:00.711Z,23.25
2023-04-16T16:41:28.930Z,26.58
2023-04-16T16:43:58.745Z,37.22
2023-04-16T16:46:27.034Z,43.60
2023-04-16T16:48:55.325Z,34.35
2023-04-16T16:51:23.733Z,56.00
2023-04-16T16:53:54.169Z,55.47
2023-04-16T16:56:23.014Z,55.08
2023-04-16T16:58:51.307Z,67.45
2023-04-16T17:01:19.702Z,83.07
2023-04-16T17:03:48.116Z,59.33
2023-04-16T17:06:16.713Z,68.97
2023-04-16T17:08:45.411Z,73.00
2023-04-16T17:11:18.265Z,75.50
2023-04-16T17:13:49.253Z,74.13
2023-04-16T17:16:19.190Z,74.97
2023-04-16T17:18:47.606Z,101.70
2023-04-16T17:21:16.830Z,105.82
2023-04-16T17:23:45.489Z,104.88
2023-04-16T17:26:13.686Z,153.98
2023-04-16T17:28:45.383Z,144.60
2023-04-16T17:31:16.760Z,124.00
2023-04-16T17:33:45.327Z,107.85
2023-04-16T17:36:14.133Z,120.15
2023-04-16T17:38:44.761Z,124.00
2023-04-16T17:41:13.347Z,103.35
2023-04-16T17:43:41.596Z,128.05
2023-04-16T17:46:12.578Z,130.80
2023-04-16T17:48:41.156Z,131.93
2023-04-16T17:51:12.931Z,93.38
2023-04-16T17:53:42.679Z,113.07
2023-04-16T17:56:11.302Z,95.82
2023-04-16T17:58:39.534Z,120.95
2023-04-16T18:01:07.861Z,99.43
2023-04-16T18:03:38.465Z,100.75
2023-04-16T18:06:07.259Z,94.20
2023-04-16T18:08:36.985Z,90.30
2023-04-16T18:11:11.009Z,98.30
2023-04-16T18:13:39.677Z,101.00
2023-04-16T18:16:14.909Z,152.98
2023-04-16T18:18:44.872Z,167.88
2023-04-16T18:21:13.304Z,173.10
2023-04-16T18:23:41.563Z,258.85
2023-04-16T18:26:11.070Z,165.95
2023-04-16T18:28:39.541Z,132.70
2023-04-16T18:31:08.084Z,103.10
2023-04-16T18:33:54.172Z,94.55
2023-04-16T18:36:26.658Z,88.65
2023-04-16T18:41:27.742Z,107.82
2023-04-16T18:43:55.976Z,139.32
2023-04-16T18:46:25.320Z,151.07
2023-04-16T18:48:58.316Z,150.20
2023-04-16T18:51:28.357Z,169.35
2023-04-16T18:53:56.814Z,139.30
2023-04-16T18:56:25.164Z,111.00
2023-04-16T18:58:53.480Z,100.43
2023-04-16T19:01:26.848Z,94.75
2023-04-16T19:03:56.212Z,65.05
2023-04-16T19:06:24.486Z,61.97
2023-04-16T19:08:57.183Z,57.70
2023-04-16T19:11:25.627Z,78.05
2023-04-16T19:13:53.900Z,146.82
2023-04-16T19:16:22.314Z,145.75
2023-04-16T19:18:50.873Z,114.28
2023-04-16T19:21:19.226Z,108.50
2023-04-16T19:23:48.258Z,99.05
2023-04-16T19:26:18.087Z,103.50
2023-04-16T19:28:46.917Z,112.25
2023-04-16T19:31:15.341Z,111.40
2023-04-16T19:33:43.610Z,135.27
2023-04-16T19:36:11.822Z,135.68
2023-04-16T19:38:40.228Z,166.63
2023-04-16T19:41:08.489Z,155.48
2023-04-16T19:43:38.166Z,150.65
2023-04-16T19:46:06.588Z,135.27
2023-04-16T19:48:34.787Z,123.80
2023-04-16T19:51:04.056Z,136.73
2023-04-16T19:53:32.436Z,150.07
2023-04-16T19:56:00.624Z,140.77
2023-04-16T19:58:28.842Z,142.63
2023-04-16T20:00:58.560Z,147.35
2023-04-16T20:03:26.888Z,132.73
2023-04-16T20:05:55.173Z,136.02
2023-04-16T20:08:23.523Z,154.43
2023-04-16T20:10:54.430Z,131.25
2023-04-16T20:13:22.901Z,163.50
2023-04-16T20:15:53.224Z,137.68
2023-04-16T20:18:22.895Z,145.85
2023-04-16T20:20:51.091Z,137.48
2023-04-16T20:23:21.904Z,131.98
2023-04-16T20:25:50.152Z,139.65
2023-04-16T20:28:21.445Z,146.63
2023-04-16T20:30:51.067Z,143.52
2023-04-16T20:33:23.837Z,132.68
2023-04-16T20:35:52.350Z,120.43
2023-04-16T20:38:23.929Z,120.82
2023-04-16T20:41:06.653Z,118.75
2023-04-16T20:43:41.113Z,122.82
2023-04-16T20:46:09.907Z,129.07
2023-04-16T20:48:40.188Z,129.80
2023-04-16T20:51:09.516Z,143.43
2023-04-16T20:53:38.174Z,98.97
2023-04-16T20:56:09.210Z,100.07
2023-04-16T20:58:37.553Z,107.88
2023-04-16T21:01:06.181Z,104.80
2023-04-16T21:03:34.972Z,94.60
2023-04-16T21:06:05.155Z,102.82
2023-04-16T21:08:33.625Z,106.10
2023-04-16T21:11:01.876Z,88.78
2023-04-16T21:13:30.251Z,89.03
2023-04-16T21:15:58.562Z,82.20
2023-04-16T21:18:26.885Z,79.55
2023-04-16T21:20:55.181Z,78.55
2023-04-16T21:23:25.036Z,89.20
2023-04-16T21:25:53.283Z,75.20
2023-04-16T21:28:21.480Z,74.30
2023-04-16T21:30:52.350Z,70.35
2023-04-16T21:33:20.920Z,86.07
2023-04-16T21:35:52.795Z,62.95
2023-04-16T21:38:21.856Z,71.53
2023-04-16T21:40:54.060Z,74.85
2023-04-16T21:43:22.793Z,74.55
2023-04-16T21:45:53.756Z,74.88
2023-04-16T21:48:22.016Z,65.75
2023-04-16T21:50:56.164Z,74.18
2023-04-16T21:53:24.470Z,63.45
2023-04-16T21:55:55.451Z,81.53
2023-04-16T21:58:24.498Z,84.05
2023-04-16T22:00:52.952Z,80.18
2023-04-16T22:03:26.359Z,75.57
2023-04-16T22:06:00.726Z,83.95
2023-04-16T22:08:29.628Z,72.18
2023-04-16T22:11:00.172Z,79.57
2023-04-16T22:13:32.471Z,76.97
2023-04-16T22:16:02.472Z,80.60
2023-04-16T22:18:32.954Z,70.40
2023-04-16T22:21:02.195Z,85.25
2023-04-16T22:23:30.412Z,80.30
2023-04-16T22:26:00.172Z,84.55
2023-04-16T22:28:28.367Z,81.28
2023-04-16T22:30:57.418Z,84.28
2023-04-16T22:33:25.909Z,69.82
2023-04-16T22:35:54.101Z,68.18
2023-04-16T22:38:22.635Z,83.93
2023-04-16T22:40:51.122Z,78.80
2023-04-16T22:43:20.719Z,84.78
2023-04-16T22:45:49.022Z,79.43
2023-04-16T22:48:17.885Z,95.70
2023-04-16T22:50:51.051Z,88.68
2023-04-16T22:53:19.419Z,85.60
2023-04-16T22:55:47.689Z,90.03
2023-04-16T22:58:17.050Z,90.50
2023-04-16T23:00:47.684Z,77.50
2023-04-16T23:03:16.305Z,82.75
2023-04-16T23:05:44.659Z,82.68
2023-04-16T23:08:12.922Z,81.18
2023-04-16T23:10:41.193Z,84.85
2023-04-16T23:13:11.588Z,77.15
2023-04-16T23:15:39.883Z,76.93
2023-04-16T23:18:09.647Z,73.05
2023-04-16T23:20:37.963Z,74.72
2023-04-16T23:23:06.259Z,74.00
2023-04-16T23:25:34.470Z,80.20
2023-04-16T23:28:02.682Z,74.90
2023-04-16T23:30:30.946Z,70.00
2023-04-16T23:32:59.198Z,83.72
2023-04-16T23:35:28.881Z,71.75
2023-04-16T23:37:57.295Z,77.18
2023-04-16T23:40:25.733Z,77.65
2023-04-16T23:42:53.879Z,74.53
2023-04-16T23:45:22.846Z,69.40
2023-04-16T23:47:51.850Z,78.85
2023-04-16T23:50:20.236Z,70.53
2023-04-16T23:52:49.918Z,74.55
2023-04-16T23:55:18.256Z,66.78
2023-04-16T23:57:46.738Z,83.97
